Time;durP1;ratioP1;P1;durP2;ratioP2;P2;SDS_P1;SDS_P2;PMS_P1;PMS_P2;Temp;Humidity;BMP_temperature;BMP_pressure;BME280_temperature;BME280_humidity;BME280_pressure;Samples;Min_cycle;Max_cycle;Signal;HPM_P1;HPM_P2
2023/08/13 00:01:31;;;;;;;8.33;8.03;;;18.20;99.90;;;;;;5098284;28;20621;-69
2023/08/13 00:04:00;;;;;;;8.37;8.07;;;18.30;99.90;;;;;;5092880;28;20474;-69
2023/08/13 00:06:27;;;;;;;9.07;8.77;;;18.40;99.90;;;;;;5095175;28;21194;-69
2023/08/13 00:08:54;;;;;;;9.93;9.43;;;18.40;99.90;;;;;;5096670;28;20468;-69
2023/08/13 00:11:21;;;;;;;8.77;8.47;;;18.50;99.90;;;;;;5100913;28;20478;-69
2023/08/13 00:13:48;;;;;;;9.00;8.70;;;18.50;99.90;;;;;;5088969;28;20994;-69
2023/08/13 00:16:15;;;;;;;9.10;8.80;;;18.50;99.90;;;;;;5097319;28;20550;-71
2023/08/13 00:18:45;;;;;;;8.93;8.63;;;18.50;99.90;;;;;;5102078;28;20450;-70
2023/08/13 00:21:14;;;;;;;8.70;8.40;;;18.50;99.90;;;;;;5099036;28;20486;-70
2023/08/13 00:23:41;;;;;;;8.23;7.93;;;18.40;99.90;;;;;;5096497;28;20454;-71
2023/08/13 00:26:08;;;;;;;8.00;7.70;;;18.40;99.90;;;;;;5091057;28;20461;-71
2023/08/13 00:28:35;;;;;;;8.50;8.20;;;18.30;99.90;;;;;;5095484;28;20457;-70
2023/08/13 00:31:03;;;;;;;7.50;7.30;;;18.20;99.90;;;;;;5098176;27;20995;-69
2023/08/13 00:33:30;;;;;;;8.13;7.83;;;18.20;99.90;;;;;;5099250;28;20458;-69
2023/08/13 00:35:57;;;;;;;7.70;7.50;;;18.20;99.90;;;;;;5098598;28;20493;-69
2023/08/13 00:38:25;;;;;;;7.90;7.60;;;18.20;99.90;;;;;;5104780;28;20529;-68
2023/08/13 00:40:51;;;;;;;8.03;7.73;;;18.30;99.90;;;;;;5103241;28;20461;-69
2023/08/13 00:43:18;;;;;;;8.17;7.87;;;18.30;99.90;;;;;;5099219;28;20475;-69
2023/08/13 00:45:45;;;;;;;8.30;8.00;;;18.20;99.90;;;;;;5094860;28;20469;-69
2023/08/13 00:48:12;;;;;;;8.30;8.00;;;18.30;99.90;;;;;;5092104;28;20818;-69
2023/08/13 00:50:40;;;;;;;8.20;7.90;;;18.30;99.90;;;;;;5097375;28;20465;-69
2023/08/13 00:53:07;;;;;;;8.47;8.10;;;18.30;99.90;;;;;;5098443;28;20457;-69
2023/08/13 00:55:36;;;;;;;8.20;7.90;;;18.20;99.90;;;;;;5099332;28;20501;-70
2023/08/13 00:58:03;;;;;;;8.33;8.03;;;18.20;99.90;;;;;;5090445;28;20470;-71
2023/08/13 01:00:31;;;;;;;7.80;7.60;;;18.10;99.90;;;;;;5095308;28;20445;-68
2023/08/13 01:02:58;;;;;;;7.83;7.63;;;18.00;99.90;;;;;;5109795;28;20978;-70
2023/08/13 01:05:35;;;;;;;7.80;7.60;;;17.90;99.90;;;;;;5096270;28;20454;-69
2023/08/13 01:08:11;;;;;;;8.00;7.70;;;17.80;99.90;;;;;;5097464;28;20462;-69
2023/08/13 01:10:41;;;;;;;8.00;7.70;;;17.90;99.90;;;;;;5085435;28;20512;-69
2023/08/13 01:13:14;;;;;;;7.70;7.40;;;17.80;99.90;;;;;;5093913;28;20835;-69
2023/08/13 01:15:44;;;;;;;7.30;7.10;;;17.80;99.90;;;;;;5099487;28;20512;-69
2023/08/13 01:18:13;;;;;;;6.93;6.73;;;17.70;99.90;;;;;;5101594;27;20453;-69
2023/08/13 01:20:42;;;;;;;7.03;6.83;;;17.50;99.90;;;;;;5096390;28;20540;-69
2023/08/13 01:23:11;;;;;;;7.87;7.67;;;17.30;99.90;;;;;;5098912;28;20462;-69
2023/08/13 01:25:42;;;;;;;7.10;6.90;;;17.20;99.90;;;;;;5093422;28;20517;-69
2023/08/13 01:28:18;;;;;;;6.90;6.70;;;17.30;99.90;;;;;;5102107;28;20457;-72
2023/08/13 01:30:47;;;;;;;6.70;6.50;;;17.30;99.90;;;;;;5092721;28;20829;-69
2023/08/13 01:33:19;;;;;;;6.70;6.50;;;17.30;99.90;;;;;;5097405;28;20461;-69
2023/08/13 01:35:47;;;;;;;6.60;6.40;;;17.30;99.90;;;;;;5096699;28;21003;-71
2023/08/13 01:38:17;;;;;;;6.80;6.60;;;17.20;99.90;;;;;;5098134;28;20976;-70
2023/08/13 01:40:45;;;;;;;6.70;6.50;;;17.20;99.90;;;;;;5098083;28;20470;-70
2023/08/13 01:43:12;;;;;;;6.50;6.30;;;17.20;99.90;;;;;;5095657;28;20468;-69
2023/08/13 01:45:38;;;;;;;6.37;6.17;;;17.10;99.90;;;;;;5100096;28;20469;-69
2023/08/13 01:48:07;;;;;;;6.20;6.00;;;17.00;99.90;;;;;;5100950;28;20507;-69
2023/08/13 01:50:33;;;;;;;6.10;5.90;;;16.90;99.90;;;;;;5102422;28;20454;-71
2023/08/13 01:53:00;;;;;;;6.60;6.40;;;16.70;99.90;;;;;;5090966;28;20519;-69
2023/08/13 01:55:29;;;;;;;6.40;6.20;;;16.50;99.90;;;;;;5100366;28;20465;-71
2023/08/13 01:57:56;;;;;;;6.20;6.00;;;16.40;99.90;;;;;;5089900;28;20473;-71
2023/08/13 02:00:23;;;;;;;6.43;6.23;;;16.40;99.90;;;;;;5103230;28;20457;-68
2023/08/13 02:02:50;;;;;;;6.60;6.40;;;16.30;99.90;;;;;;5105584;28;20453;-69
2023/08/13 02:05:17;;;;;;;6.33;6.13;;;16.20;99.90;;;;;;5097296;28;20842;-70
2023/08/13 02:07:43;;;;;;;6.33;6.13;;;16.20;99.90;;;;;;5092962;28;20477;-69
2023/08/13 02:10:11;;;;;;;6.00;5.80;;;16.20;99.90;;;;;;5091676;28;20450;-69
2023/08/13 02:12:40;;;;;;;6.53;6.33;;;16.20;99.90;;;;;;5089568;28;20655;-69
2023/08/13 02:15:08;;;;;;;6.03;5.83;;;16.20;99.90;;;;;;5092571;28;20515;-69
2023/08/13 02:17:35;;;;;;;6.03;5.83;;;16.10;99.90;;;;;;5091553;28;20489;-69
2023/08/13 02:20:02;;;;;;;5.70;5.60;;;16.10;99.90;;;;;;5097437;28;20453;-69
2023/08/13 02:22:29;;;;;;;5.90;5.73;;;16.10;99.90;;;;;;5096111;28;20468;-71
2023/08/13 02:24:58;;;;;;;5.70;5.60;;;16.00;99.90;;;;;;5103036;28;20477;-71
2023/08/13 02:27:25;;;;;;;5.57;5.47;;;16.10;99.90;;;;;;5101148;28;20545;-69
2023/08/13 02:29:57;;;;;;;5.10;5.00;;;16.00;99.90;;;;;;5097937;28;21005;-69
2023/08/13 02:32:24;;;;;;;5.30;5.20;;;16.00;99.90;;;;;;5098342;28;20453;-69
2023/08/13 02:34:51;;;;;;;5.77;5.67;;;15.90;99.90;;;;;;5102211;28;20484;-71
2023/08/13 02:37:18;;;;;;;5.40;5.30;;;15.80;99.90;;;;;;5097978;28;20501;-68
2023/08/13 02:39:45;;;;;;;5.33;5.23;;;15.90;99.90;;;;;;5095625;28;20462;-71
2023/08/13 02:42:12;;;;;;;5.30;5.20;;;15.80;99.90;;;;;;5094105;28;20469;-70
2023/08/13 02:44:38;;;;;;;5.40;5.30;;;15.80;99.90;;;;;;5092832;28;20462;-71
2023/08/13 02:47:07;;;;;;;5.70;5.60;;;15.80;99.90;;;;;;5104144;28;20793;-69
2023/08/13 02:49:33;;;;;;;6.30;6.10;;;15.80;99.90;;;;;;5101372;28;20453;-68
2023/08/13 02:52:00;;;;;;;4.90;4.80;;;15.90;99.90;;;;;;5100729;28;20470;-69
2023/08/13 02:54:27;;;;;;;5.10;5.00;;;15.90;99.90;;;;;;5098612;28;20543;-70
2023/08/13 02:56:54;;;;;;;4.80;4.70;;;15.90;99.90;;;;;;5096799;28;20489;-69
2023/08/13 02:59:21;;;;;;;4.57;4.47;;;15.80;99.90;;;;;;5097633;28;20454;-69
2023/08/13 03:01:48;;;;;;;4.90;4.80;;;15.80;99.90;;;;;;5110761;28;20461;-71
2023/08/13 03:04:17;;;;;;;4.90;4.80;;;15.70;99.90;;;;;;5104335;28;20458;-69
2023/08/13 03:06:44;;;;;;;5.03;4.93;;;15.70;99.90;;;;;;5098225;28;20456;-71
2023/08/13 03:09:19;;;;;;;4.70;4.60;;;15.60;99.90;;;;;;5095810;28;20465;-69
2023/08/13 03:11:47;;;;;;;4.90;4.80;;;15.60;99.90;;;;;;5102743;28;20999;-69
2023/08/13 03:14:14;;;;;;;4.87;4.77;;;15.60;99.90;;;;;;5101404;28;20801;-69
2023/08/13 03:16:42;;;;;;;4.82;4.72;;;15.50;99.90;;;;;;5073960;28;1041170;-71
2023/08/13 03:19:08;;;;;;;4.70;4.60;;;15.40;99.90;;;;;;5091792;28;20191;-69
2023/08/13 03:21:36;;;;;;;4.80;4.70;;;15.30;99.90;;;;;;5089740;28;20462;-69
2023/08/13 03:24:04;;;;;;;4.73;4.63;;;15.20;99.90;;;;;;5091376;28;20485;-69
2023/08/13 03:26:31;;;;;;;4.90;4.80;;;15.10;99.90;;;;;;5095909;28;20450;-69
2023/08/13 03:28:58;;;;;;;4.90;4.80;;;15.10;99.90;;;;;;5104789;28;20504;-69
2023/08/13 03:31:25;;;;;;;4.63;4.53;;;15.00;99.90;;;;;;5098972;28;20940;-69
2023/08/13 03:33:52;;;;;;;5.03;4.93;;;14.90;99.90;;;;;;5104909;28;20449;-69
2023/08/13 03:36:18;;;;;;;5.00;4.90;;;14.90;99.90;;;;;;5092946;28;20477;-71
2023/08/13 03:38:47;;;;;;;4.60;4.50;;;14.80;99.90;;;;;;5102757;28;20449;-70
2023/08/13 03:41:14;;;;;;;4.90;4.80;;;14.70;99.90;;;;;;5093048;28;20469;-69
2023/08/13 03:43:41;;;;;;;4.97;4.87;;;14.70;99.90;;;;;;5103825;28;20460;-69
2023/08/13 03:46:08;;;;;;;4.80;4.70;;;14.60;99.90;;;;;;5108500;28;20740;-69
2023/08/13 03:48:35;;;;;;;4.97;4.87;;;14.60;99.90;;;;;;5098011;28;20454;-69
2023/08/13 03:51:03;;;;;;;4.70;4.60;;;14.60;99.90;;;;;;5098214;28;20472;-69
2023/08/13 03:53:30;;;;;;;4.87;4.77;;;14.60;99.90;;;;;;5092579;28;20462;-69
2023/08/13 03:56:00;;;;;;;4.73;4.63;;;14.60;99.90;;;;;;5106453;28;20469;-69
2023/08/13 03:58:27;;;;;;;5.00;4.90;;;14.50;99.90;;;;;;5100913;28;20530;-69
2023/08/13 04:00:54;;;;;;;5.10;5.00;;;14.50;99.90;;;;;;5100372;28;20785;-69
2023/08/13 04:03:21;;;;;;;4.83;4.73;;;14.50;99.90;;;;;;5100167;28;20685;-69
2023/08/13 04:05:48;;;;;;;4.87;4.77;;;14.40;99.90;;;;;;5098148;28;20454;-69
2023/08/13 04:08:15;;;;;;;5.13;5.03;;;14.50;99.90;;;;;;5107704;28;20476;-71
2023/08/13 04:10:42;;;;;;;4.77;4.67;;;14.50;99.90;;;;;;5097425;27;20484;-70
2023/08/13 04:13:10;;;;;;;4.70;4.60;;;14.60;99.90;;;;;;5095168;28;20473;-70
2023/08/13 04:15:37;;;;;;;4.33;4.23;;;14.60;99.90;;;;;;5097657;28;20491;-69
2023/08/13 04:18:04;;;;;;;4.17;4.07;;;14.50;99.90;;;;;;5100420;28;20490;-69
2023/08/13 04:20:31;;;;;;;4.70;4.60;;;14.50;99.90;;;;;;5100383;28;20457;-70
2023/08/13 04:22:58;;;;;;;4.33;4.23;;;14.40;99.90;;;;;;5103398;28;20847;-69
2023/08/13 04:25:25;;;;;;;4.77;4.67;;;14.30;99.90;;;;;;5101941;28;20896;-69
2023/08/13 04:27:52;;;;;;;4.70;4.60;;;14.20;99.90;;;;;;5109042;28;20960;-69
2023/08/13 04:30:20;;;;;;;4.70;4.60;;;14.20;99.90;;;;;;5101839;28;20628;-69
2023/08/13 04:32:53;;;;;;;5.10;5.00;;;14.20;99.90;;;;;;5096974;28;20461;-69
2023/08/13 04:35:20;;;;;;;4.80;4.70;;;14.20;99.90;;;;;;5091658;28;20934;-69
2023/08/13 04:37:48;;;;;;;4.70;4.60;;;14.20;99.90;;;;;;5107176;28;20492;-70
2023/08/13 04:40:15;;;;;;;5.00;4.90;;;14.20;99.90;;;;;;5100512;28;20956;-70
2023/08/13 04:42:42;;;;;;;4.83;4.73;;;14.20;99.90;;;;;;5095264;28;20787;-69
2023/08/13 04:45:12;;;;;;;4.70;4.60;;;14.30;99.90;;;;;;5095789;28;20465;-69
2023/08/13 04:47:40;;;;;;;4.60;4.50;;;14.30;99.90;;;;;;5097894;28;20487;-71
2023/08/13 04:50:09;;;;;;;4.50;4.40;;;14.30;99.90;;;;;;5102750;28;20453;-69
2023/08/13 04:52:36;;;;;;;4.83;4.73;;;14.40;99.90;;;;;;5109352;28;20445;-69
2023/08/13 04:55:03;;;;;;;4.73;4.63;;;14.40;99.90;;;;;;5094831;28;20960;-69
2023/08/13 04:57:30;;;;;;;4.57;4.47;;;14.40;99.90;;;;;;5094131;28;20817;-70
2023/08/13 04:59:58;;;;;;;4.63;4.53;;;14.60;99.90;;;;;;5095670;28;20472;-69
2023/08/13 05:02:25;;;;;;;4.87;4.77;;;14.70;99.90;;;;;;5091212;27;20462;-70
2023/08/13 05:04:54;;;;;;;5.30;5.20;;;14.90;99.90;;;;;;5095123;28;20815;-69
2023/08/13 05:07:20;;;;;;;5.03;4.93;;;15.10;99.90;;;;;;5088766;28;20553;-70
2023/08/13 05:09:48;;;;;;;4.20;4.10;;;15.20;99.90;;;;;;5089244;28;20502;-69
2023/08/13 05:12:14;;;;;;;4.00;3.90;;;15.30;99.90;;;;;;5096067;28;21605;-69
2023/08/13 05:14:41;;;;;;;4.00;3.90;;;15.40;99.90;;;;;;5086325;28;20461;-69
2023/08/13 05:17:17;;;;;;;3.80;3.70;;;15.50;99.90;;;;;;5091805;28;20505;-69
2023/08/13 05:19:44;;;;;;;3.80;3.70;;;15.70;99.90;;;;;;5095616;28;20548;-70
2023/08/13 05:22:12;;;;;;;3.80;3.70;;;15.80;99.90;;;;;;5089484;28;21022;-69
2023/08/13 05:24:39;;;;;;;4.13;4.03;;;15.80;99.90;;;;;;5091234;28;20468;-69
2023/08/13 05:27:07;;;;;;;3.63;3.53;;;15.90;99.90;;;;;;5105069;28;20453;-69
2023/08/13 05:29:34;;;;;;;3.67;3.57;;;16.00;99.90;;;;;;5093539;28;20544;-69
2023/08/13 05:32:00;;;;;;;3.70;3.60;;;16.00;99.90;;;;;;5086237;28;20465;-70
2023/08/13 05:34:27;;;;;;;3.70;3.60;;;16.00;99.90;;;;;;5087137;28;20497;-70
2023/08/13 05:36:54;;;;;;;3.50;3.40;;;16.10;99.90;;;;;;5100045;28;20481;-69
2023/08/13 05:39:22;;;;;;;3.50;3.40;;;16.10;99.90;;;;;;5094734;28;20465;-69
2023/08/13 05:41:49;;;;;;;3.80;3.70;;;16.10;99.90;;;;;;5092604;28;20462;-71
2023/08/13 05:44:16;;;;;;;3.60;3.50;;;16.20;99.90;;;;;;5089170;28;20498;-70
2023/08/13 05:46:43;;;;;;;4.20;4.10;;;16.30;99.90;;;;;;5102869;28;20457;-69
2023/08/13 05:49:10;;;;;;;3.90;3.80;;;16.40;99.90;;;;;;5104168;28;20457;-69
2023/08/13 05:51:37;;;;;;;3.93;3.83;;;16.50;99.90;;;;;;5093350;28;20450;-69
2023/08/13 05:54:05;;;;;;;4.67;4.40;;;16.60;99.90;;;;;;5091275;28;20458;-69
2023/08/13 05:56:33;;;;;;;3.83;3.73;;;16.80;99.90;;;;;;5093503;28;20833;-69
2023/08/13 05:58:59;;;;;;;4.27;4.17;;;16.80;99.90;;;;;;5098586;28;20946;-69
2023/08/13 06:01:28;;;;;;;4.20;4.10;;;17.00;99.90;;;;;;5093152;28;20473;-70
2023/08/13 06:03:55;;;;;;;4.50;4.40;;;17.00;99.90;;;;;;5096212;28;20457;-69
2023/08/13 06:06:22;;;;;;;4.77;4.67;;;17.20;99.90;;;;;;5094504;28;20454;-70
2023/08/13 06:08:50;;;;;;;4.60;4.50;;;17.40;99.90;;;;;;5089136;28;20816;-69
2023/08/13 06:11:17;;;;;;;4.93;4.83;;;17.50;99.90;;;;;;5094120;28;20587;-70
2023/08/13 06:13:45;;;;;;;6.13;5.93;;;17.70;99.90;;;;;;5085862;28;20923;-69
2023/08/13 06:16:12;;;;;;;6.00;5.80;;;17.80;99.90;;;;;;5088506;28;20473;-69
2023/08/13 06:18:39;;;;;;;6.40;6.20;;;17.90;99.90;;;;;;5093126;28;20494;-71
2023/08/13 06:21:06;;;;;;;6.90;6.70;;;18.10;99.90;;;;;;5090326;28;20461;-69
2023/08/13 06:23:33;;;;;;;7.00;6.80;;;18.10;99.90;;;;;;5094783;28;20461;-70
2023/08/13 06:26:00;;;;;;;7.67;7.47;;;18.20;99.90;;;;;;5095085;28;20469;-69
2023/08/13 06:28:27;;;;;;;8.10;7.80;;;18.40;99.90;;;;;;5096060;28;20453;-70
2023/08/13 06:30:56;;;;;;;8.27;7.97;;;18.50;99.90;;;;;;5101838;28;20955;-69
2023/08/13 06:33:23;;;;;;;8.50;8.20;;;18.60;99.90;;;;;;5094689;28;21608;-69
2023/08/13 06:35:50;;;;;;;8.67;8.37;;;18.80;99.90;;;;;;5093373;28;20923;-69
2023/08/13 06:38:18;;;;;;;8.90;8.60;;;19.00;99.90;;;;;;5090704;28;20488;-71
2023/08/13 06:40:45;;;;;;;9.10;8.80;;;19.10;99.90;;;;;;5094126;28;20462;-71
2023/08/13 06:43:13;;;;;;;9.70;9.40;;;19.20;99.90;;;;;;5093577;28;20552;-70
2023/08/13 06:45:39;;;;;;;9.40;9.10;;;19.20;99.90;;;;;;5097274;28;20997;-69
2023/08/13 06:48:08;;;;;;;10.00;9.50;;;19.20;99.90;;;;;;5093236;28;20802;-69
2023/08/13 06:50:35;;;;;;;10.30;9.90;;;19.20;99.90;;;;;;5090513;28;20458;-70
2023/08/13 06:53:02;;;;;;;10.10;9.77;;;19.30;99.90;;;;;;5086085;28;20972;-69
2023/08/13 06:55:29;;;;;;;9.90;9.60;;;19.40;99.90;;;;;;5089850;28;20553;-70
2023/08/13 06:57:56;;;;;;;10.07;9.77;;;19.40;99.90;;;;;;5089393;28;21531;-70
2023/08/13 07:00:22;;;;;;;10.10;9.80;;;19.30;99.90;;;;;;5093819;28;20986;-69
2023/08/13 07:02:50;;;;;;;10.43;10.03;;;19.30;99.90;;;;;;5093752;28;20452;-71
2023/08/13 07:05:19;;;;;;;10.13;9.80;;;19.30;99.90;;;;;;5096032;28;20864;-69
2023/08/13 07:07:46;;;;;;;10.60;10.20;;;19.40;99.90;;;;;;5102445;28;20465;-70
2023/08/13 07:10:13;;;;;;;10.40;10.00;;;19.40;99.90;;;;;;5095072;28;20509;-69
2023/08/13 07:12:40;;;;;;;9.83;9.53;;;19.40;99.90;;;;;;5097498;28;20956;-68
2023/08/13 07:15:09;;;;;;;10.83;10.43;;;19.50;99.90;;;;;;5101525;28;20700;-72
2023/08/13 07:17:35;;;;;;;9.80;9.50;;;19.50;99.90;;;;;;5092385;28;20501;-69
2023/08/13 07:20:08;;;;;;;9.30;9.00;;;19.60;99.90;;;;;;5102586;28;20460;-69
2023/08/13 07:22:37;;;;;;;10.60;10.20;;;19.80;99.90;;;;;;5089961;28;20464;-69
2023/08/13 07:25:05;;;;;;;10.40;10.00;;;19.70;99.90;;;;;;5090291;28;20804;-69
2023/08/13 07:27:32;;;;;;;9.93;9.63;;;19.80;99.90;;;;;;5097168;28;20826;-72
2023/08/13 07:29:59;;;;;;;10.70;10.30;;;19.90;99.90;;;;;;5091593;28;20523;-72
2023/08/13 07:32:25;;;;;;;10.70;10.30;;;20.10;99.90;;;;;;5096356;28;20453;-70
2023/08/13 07:34:52;;;;;;;10.43;10.03;;;20.30;99.90;;;;;;5098111;28;20457;-69
2023/08/13 07:37:20;;;;;;;10.43;10.03;;;20.60;99.90;;;;;;5108132;28;20457;-70
2023/08/13 07:39:49;;;;;;;10.50;10.10;;;20.70;99.90;;;;;;5092923;28;21011;-69
2023/08/13 07:42:16;;;;;;;11.10;10.70;;;21.10;99.90;;;;;;5096154;28;20460;-70
2023/08/13 07:44:43;;;;;;;11.20;10.80;;;21.30;99.90;;;;;;5098054;28;20466;-70
2023/08/13 07:47:10;;;;;;;11.43;11.03;;;21.60;99.90;;;;;;5096643;27;20828;-69
2023/08/13 07:49:37;;;;;;;11.30;10.90;;;21.80;99.90;;;;;;5101538;28;20466;-69
2023/08/13 07:52:04;;;;;;;10.70;10.30;;;22.00;99.90;;;;;;5091456;28;20469;-71
2023/08/13 07:54:31;;;;;;;11.07;10.67;;;22.20;99.90;;;;;;5096653;28;20458;-71
2023/08/13 07:56:59;;;;;;;11.80;11.40;;;22.60;99.90;;;;;;5095119;28;20472;-69
2023/08/13 07:59:27;;;;;;;11.30;10.90;;;22.90;99.90;;;;;;5095145;28;20837;-69
2023/08/13 08:01:55;;;;;;;11.50;11.10;;;23.20;99.90;;;;;;5106226;28;20971;-69
2023/08/13 08:04:22;;;;;;;11.37;10.97;;;23.10;99.90;;;;;;5105904;28;20468;-69
2023/08/13 08:06:49;;;;;;;11.10;10.70;;;23.40;99.90;;;;;;5106390;28;20845;-69
2023/08/13 08:09:16;;;;;;;11.60;11.20;;;23.50;99.90;;;;;;5093949;28;20467;-69
2023/08/13 08:11:43;;;;;;;11.50;11.10;;;23.60;99.90;;;;;;5091559;28;20815;-71
2023/08/13 08:14:11;;;;;;;11.17;10.77;;;23.70;99.90;;;;;;5090118;28;20919;-72
2023/08/13 08:16:38;;;;;;;11.90;11.40;;;23.50;99.90;;;;;;5093812;28;20473;-71
2023/08/13 08:19:05;;;;;;;11.50;11.10;;;23.50;99.90;;;;;;5099102;28;20503;-68
2023/08/13 08:21:32;;;;;;;11.30;10.90;;;23.60;99.90;;;;;;5098371;27;20466;-70
2023/08/13 08:24:00;;;;;;;11.00;10.60;;;23.90;99.90;;;;;;5106774;28;20466;-68
2023/08/13 08:26:27;;;;;;;11.00;10.60;;;24.20;99.90;;;;;;5097131;28;20449;-69
2023/08/13 08:28:54;;;;;;;11.17;10.77;;;24.10;99.90;;;;;;5101888;28;20466;-68
2023/08/13 08:31:22;;;;;;;10.87;10.47;;;24.30;99.90;;;;;;5091598;28;20461;-68
2023/08/13 08:33:49;;;;;;;10.97;10.57;;;24.20;99.90;;;;;;5094001;28;20460;-68
2023/08/13 08:36:16;;;;;;;11.63;11.13;;;24.30;99.90;;;;;;5094769;28;20458;-68
2023/08/13 08:38:43;;;;;;;11.27;10.87;;;24.40;99.90;;;;;;5090051;28;20511;-71
2023/08/13 08:41:13;;;;;;;10.50;10.17;;;24.50;99.90;;;;;;5093300;28;20450;-69
2023/08/13 08:43:40;;;;;;;10.57;10.27;;;24.70;99.90;;;;;;5091411;28;20516;-71
2023/08/13 08:46:09;;;;;;;11.57;11.17;;;25.00;99.90;;;;;;5092860;28;20454;-69
2023/08/13 08:48:38;;;;;;;11.37;10.97;;;25.30;99.90;;;;;;5090228;28;22109;-68
2023/08/13 08:51:05;;;;;;;11.70;11.30;;;25.60;99.90;;;;;;5091935;28;20457;-67
2023/08/13 08:53:34;;;;;;;11.13;10.73;;;25.90;99.90;;;;;;5091219;28;20506;-70
2023/08/13 08:56:00;;;;;;;11.93;11.53;;;25.80;99.90;;;;;;5086974;28;20468;-68
2023/08/13 08:58:29;;;;;;;12.20;11.80;;;26.00;99.90;;;;;;5091577;28;20477;-70
2023/08/13 09:01:00;;;;;;;11.70;11.30;;;26.50;99.90;;;;;;5098615;28;20569;-68
2023/08/13 09:03:27;;;;;;;16.73;15.60;;;26.60;99.90;;;;;;5101896;28;20457;-69
2023/08/13 09:05:55;;;;;;;12.17;11.77;;;26.70;99.90;;;;;;5093995;28;20457;-68
2023/08/13 09:08:22;;;;;;;13.60;13.10;;;26.90;99.90;;;;;;5088248;28;20462;-68
2023/08/13 09:10:50;;;;;;;13.90;13.30;;;27.30;99.90;;;;;;5090659;28;20489;-70
2023/08/13 09:13:16;;;;;;;12.67;12.17;;;27.60;99.90;;;;;;5097520;28;20460;-71
2023/08/13 09:15:48;;;;;;;13.27;12.67;;;28.00;99.90;;;;;;5094442;28;20517;-71
2023/08/13 09:18:15;;;;;;;13.80;13.30;;;27.90;99.90;;;;;;5090116;28;20523;-69
2023/08/13 09:20:47;;;;;;;13.10;12.60;;;27.50;99.90;;;;;;5098411;28;20453;-68
2023/08/13 09:23:22;;;;;;;13.30;12.80;;;27.50;99.90;;;;;;5094293;28;20450;-69
2023/08/13 09:25:53;;;;;;;13.80;13.30;;;27.80;99.90;;;;;;5091321;28;20493;-68
2023/08/13 09:28:20;;;;;;;13.73;13.13;;;27.80;99.90;;;;;;5089673;28;20565;-68
2023/08/13 09:30:47;;;;;;;13.97;13.47;;;27.70;99.90;;;;;;5093396;28;20462;-67
2023/08/13 09:33:16;;;;;;;13.23;12.73;;;27.50;99.90;;;;;;5085286;28;20481;-68
2023/08/13 09:35:44;;;;;;;13.60;13.10;;;27.70;99.90;;;;;;5092806;28;20890;-68
2023/08/13 09:38:10;;;;;;;13.57;13.07;;;28.10;99.90;;;;;;5098925;28;20482;-70
2023/08/13 09:40:39;;;;;;;13.80;13.30;;;28.30;99.90;;;;;;5089378;28;20446;-67
2023/08/13 09:43:08;;;;;;;13.40;12.80;;;28.20;99.90;;;;;;5090584;28;21169;-71
2023/08/13 09:45:36;;;;;;;13.63;13.13;;;28.20;99.90;;;;;;5093995;28;20496;-68
2023/08/13 09:48:05;;;;;;;14.00;13.50;;;28.50;99.90;;;;;;5088532;28;20454;-68
2023/08/13 09:50:35;;;;;;;13.60;13.10;;;28.70;99.90;;;;;;5090146;28;20481;-69
2023/08/13 09:53:03;;;;;;;13.57;13.07;;;29.10;99.90;;;;;;5091511;28;20969;-70
2023/08/13 09:55:33;;;;;;;14.50;13.90;;;29.00;99.90;;;;;;5094377;28;20456;-66
2023/08/13 09:58:02;;;;;;;13.57;13.07;;;29.30;99.90;;;;;;5088822;28;20476;-67
2023/08/13 10:00:30;;;;;;;14.10;13.60;;;29.70;99.90;;;;;;5093831;28;20461;-68
2023/08/13 10:02:58;;;;;;;13.57;13.07;;;29.90;99.90;;;;;;5089922;28;20462;-67
2023/08/13 10:05:25;;;;;;;14.00;13.50;;;30.10;99.90;;;;;;5092395;28;20485;-67
2023/08/13 10:07:52;;;;;;;13.60;13.20;;;30.20;99.90;;;;;;5091338;28;20738;-66
2023/08/13 10:10:20;;;;;;;13.13;12.73;;;29.70;99.90;;;;;;5091653;28;20450;-66
2023/08/13 10:12:48;;;;;;;13.13;12.73;;;30.00;99.90;;;;;;5095829;28;20493;-66
2023/08/13 10:15:19;;;;;;;13.33;12.93;;;29.80;99.90;;;;;;5092718;28;20464;-68
2023/08/13 10:17:47;;;;;;;13.47;13.07;;;29.40;99.90;;;;;;5089887;28;20489;-69
2023/08/13 10:20:14;;;;;;;13.13;12.73;;;28.80;99.90;;;;;;5095893;28;20844;-66
2023/08/13 10:22:42;;;;;;;13.80;13.40;;;28.90;99.90;;;;;;5092610;28;20461;-66
2023/08/13 10:25:10;;;;;;;13.40;13.00;;;29.60;99.90;;;;;;5093289;28;20458;-66
2023/08/13 10:27:42;;;;;;;13.30;12.90;;;29.80;99.90;;;;;;5099184;28;20456;-66
2023/08/13 10:30:11;;;;;;;13.50;13.10;;;29.80;99.90;;;;;;5100698;28;20469;-67
2023/08/13 10:32:49;;;;;;;13.10;12.70;;;30.10;99.90;;;;;;5102225;28;21111;-66
2023/08/13 10:35:25;;;;;;;13.10;12.70;;;30.20;99.90;;;;;;5093647;28;20731;-65
2023/08/13 10:37:53;;;;;;;13.23;12.83;;;29.80;99.90;;;;;;5090002;28;20469;-67
2023/08/13 10:40:21;;;;;;;13.93;13.50;;;29.90;99.90;;;;;;5095331;28;20545;-66
2023/08/13 10:42:52;;;;;;;14.00;13.00;;;30.30;99.90;;;;;;5086116;28;20474;-68
2023/08/13 10:45:21;;;;;;;13.13;12.73;;;30.50;99.90;;;;;;5094902;28;20952;-69
2023/08/13 10:47:55;;;;;;;12.53;12.23;;;30.50;99.90;;;;;;5095988;28;20675;-69
2023/08/13 10:50:30;;;;;;;12.73;12.43;;;30.70;99.90;;;;;;5092869;28;20552;-66
2023/08/13 10:53:04;;;;;;;12.60;12.30;;;31.00;99.90;;;;;;5098450;28;20445;-66
2023/08/13 10:55:33;;;;;;;13.17;12.77;;;30.70;99.90;;;;;;5094811;28;21054;-67
2023/08/13 10:58:00;;;;;;;13.23;12.83;;;30.90;99.90;;;;;;5093060;28;21299;-67
2023/08/13 11:00:29;;;;;;;13.80;13.40;;;31.30;99.90;;;;;;5099583;28;20489;-67
2023/08/13 11:03:15;;;;;;;13.23;12.83;;;31.00;99.90;;;;;;5098696;28;20462;-68
2023/08/13 11:05:43;;;;;;;13.53;13.13;;;31.50;99.90;;;;;;5091772;28;20978;-67
2023/08/13 11:08:15;;;;;;;13.40;13.00;;;31.20;99.90;;;;;;5095499;28;20484;-66
2023/08/13 11:10:43;;;;;;;13.97;13.57;;;30.80;99.90;;;;;;5108152;28;20449;-66
2023/08/13 11:13:11;;;;;;;12.93;12.63;;;30.50;99.90;;;;;;5104747;28;21020;-68
2023/08/13 11:15:39;;;;;;;13.73;13.33;;;30.80;99.90;;;;;;5094831;28;20485;-67
2023/08/13 11:18:07;;;;;;;13.37;12.97;;;30.90;99.90;;;;;;5095932;28;20458;-67
2023/08/13 11:20:34;;;;;;;13.20;12.80;;;30.60;99.90;;;;;;5089290;28;20488;-66
2023/08/13 11:23:05;;;;;;;13.10;12.70;;;30.50;99.90;;;;;;5094188;28;20476;-67
2023/08/13 11:25:32;;;;;;;13.40;13.00;;;30.40;99.90;;;;;;5097339;28;20457;-66
2023/08/13 11:28:01;;;;;;;13.27;12.87;;;30.50;99.90;;;;;;5096261;28;20996;-68
2023/08/13 11:30:28;;;;;;;13.43;13.03;;;30.10;99.90;;;;;;5094794;28;20536;-66
2023/08/13 11:32:55;;;;;;;13.47;13.07;;;29.60;99.90;;;;;;5095119;28;20476;-66
2023/08/13 11:35:23;;;;;;;12.67;12.37;;;28.90;99.90;;;;;;5089914;28;20458;-66
2023/08/13 11:37:50;;;;;;;13.40;13.00;;;29.10;99.90;;;;;;5093511;28;20461;-67
2023/08/13 11:40:18;;;;;;;13.47;13.07;;;29.20;99.90;;;;;;5098053;28;20501;-67
2023/08/13 11:42:56;;;;;;;12.73;12.43;;;28.90;99.90;;;;;;5097237;28;20947;-66
2023/08/13 11:45:24;;;;;;;13.27;12.87;;;28.80;99.90;;;;;;5098641;28;20468;-67
2023/08/13 11:47:51;;;;;;;13.00;12.70;;;29.00;99.90;;;;;;5086662;28;20481;-67
2023/08/13 11:50:20;;;;;;;13.57;13.17;;;29.30;99.90;;;;;;5098144;28;20462;-67
2023/08/13 11:55:45;;;;;;;12.70;12.40;;;29.30;99.90;;;;;;5077137;27;20558;-68
2023/08/13 11:58:12;;;;;;;13.50;13.10;;;29.30;99.90;;;;;;5059192;28;20889;-67
2023/08/13 12:00:38;;;;;;;12.60;12.30;;;29.30;99.90;;;;;;5051889;28;20577;-69
2023/08/13 12:03:06;;;;;;;12.97;12.67;;;29.40;99.90;;;;;;5047288;28;20467;-68
2023/08/13 12:05:34;;;;;;;12.60;12.30;;;29.70;99.90;;;;;;5054096;28;20455;-67
2023/08/13 12:08:04;;;;;;;13.50;13.10;;;30.00;99.90;;;;;;5056381;28;20467;-67
2023/08/13 12:10:32;;;;;;;12.90;12.60;;;30.20;99.90;;;;;;5063833;28;20474;-67
2023/08/13 12:13:01;;;;;;;12.10;11.80;;;30.00;99.90;;;;;;5045374;28;20475;-67
2023/08/13 12:15:31;;;;;;;12.80;12.50;;;29.50;99.90;;;;;;5042184;28;20506;-67
2023/08/13 12:17:58;;;;;;;12.90;12.60;;;29.40;99.90;;;;;;5047666;28;20471;-68
2023/08/13 12:20:27;;;;;;;12.70;12.40;;;29.50;99.90;;;;;;5037228;28;20551;-67
2023/08/13 12:22:54;;;;;;;12.57;12.27;;;29.60;99.90;;;;;;5033761;28;21038;-68
2023/08/13 12:25:21;;;;;;;13.20;12.80;;;30.10;99.90;;;;;;5042466;28;20899;-68
2023/08/13 12:27:48;;;;;;;12.90;12.60;;;31.00;99.90;;;;;;5045767;28;20462;-67
2023/08/13 12:30:16;;;;;;;12.80;12.50;;;31.30;99.90;;;;;;5047836;28;20456;-67
2023/08/13 12:32:43;;;;;;;12.00;11.70;;;31.50;99.90;;;;;;5040740;28;20448;-67
2023/08/13 12:35:10;;;;;;;12.13;11.83;;;31.70;99.90;;;;;;5030066;28;20484;-67
2023/08/13 12:37:37;;;;;;;13.03;12.67;;;31.80;99.90;;;;;;5040520;28;20452;-67
2023/08/13 12:40:09;;;;;;;12.40;12.10;;;32.50;98.00;;;;;;5032653;28;20468;-69
2023/08/13 12:42:35;;;;;;;12.10;11.80;;;32.40;96.80;;;;;;5037905;28;20464;-67
2023/08/13 12:45:03;;;;;;;12.83;12.53;;;32.50;97.00;;;;;;5045997;28;20898;-67